createdAt,value
2022-10-13T00:01:11.012Z,11.00
2022-10-13T00:03:42.183Z,11.00
2022-10-13T00:06:11.631Z,11.00
2022-10-13T00:08:40.857Z,11.00
2022-10-13T00:11:14.204Z,11.10
2022-10-13T00:13:42.665Z,11.10
2022-10-13T00:16:12.587Z,11.10
2022-10-13T00:18:42.529Z,11.10
2022-10-13T00:21:11.826Z,11.10
2022-10-13T00:23:40.336Z,11.10
2022-10-13T00:26:10.837Z,11.10
2022-10-13T00:28:39.778Z,11.20
2022-10-13T00:31:16.789Z,11.20
2022-10-13T00:33:46.185Z,11.20
2022-10-13T00:36:14.170Z,11.20
2022-10-13T00:38:42.039Z,11.20
2022-10-13T00:41:10.004Z,11.30
2022-10-13T00:43:57.846Z,11.30
2022-10-13T00:46:27.396Z,11.30
2022-10-13T00:48:57.750Z,11.40
2022-10-13T00:51:30.494Z,11.40
2022-10-13T00:54:00.405Z,11.40
2022-10-13T00:56:30.019Z,11.30
2022-10-13T00:58:58.893Z,11.60
2022-10-13T01:01:26.850Z,11.50
2022-10-13T01:03:56.546Z,11.50
2022-10-13T01:06:24.681Z,11.50
2022-10-13T01:08:52.719Z,11.50
2022-10-13T01:11:42.158Z,11.50
2022-10-13T01:14:19.562Z,11.50
2022-10-13T01:16:54.144Z,11.50
2022-10-13T01:19:46.862Z,11.60
2022-10-13T01:22:28.203Z,11.60
2022-10-13T01:25:04.020Z,11.60
2022-10-13T01:27:52.802Z,11.60
2022-10-13T01:30:23.862Z,11.70
2022-10-13T01:33:14.029Z,11.70
2022-10-13T01:35:56.764Z,11.80
2022-10-13T01:38:35.028Z,11.80
2022-10-13T01:41:11.157Z,11.80
2022-10-13T01:43:44.231Z,11.80
2022-10-13T01:46:16.645Z,11.90
2022-10-13T01:48:45.407Z,11.90
2022-10-13T01:51:16.766Z,11.90
2022-10-13T01:53:46.576Z,11.90
2022-10-13T01:56:15.509Z,12.00
2022-10-13T01:58:43.477Z,11.90
2022-10-13T02:01:23.535Z,11.90
2022-10-13T02:04:02.361Z,12.00
2022-10-13T02:06:33.828Z,12.00
2022-10-13T02:09:09.509Z,12.00
2022-10-13T02:11:40.049Z,12.00
2022-10-13T02:14:15.833Z,12.00
2022-10-13T02:16:47.093Z,12.80
2022-10-13T02:19:18.199Z,12.00
2022-10-13T02:21:47.000Z,12.10
2022-10-13T02:24:15.142Z,12.10
2022-10-13T02:26:43.486Z,12.10
2022-10-13T02:29:12.997Z,12.10
2022-10-13T02:31:42.390Z,12.20
2022-10-13T02:34:12.222Z,12.10
2022-10-13T02:36:41.021Z,12.20
2022-10-13T02:39:11.309Z,12.10
2022-10-13T02:41:39.656Z,12.20
2022-10-13T02:44:08.089Z,12.30
2022-10-13T02:46:36.146Z,12.30
2022-10-13T02:49:04.116Z,12.30
2022-10-13T02:51:37.505Z,12.40
2022-10-13T02:54:07.973Z,12.30
2022-10-13T02:56:35.838Z,12.30
2022-10-13T02:59:03.742Z,12.30
2022-10-13T03:01:31.697Z,12.80
2022-10-13T03:03:59.650Z,12.40
2022-10-13T03:06:27.628Z,12.30
2022-10-13T03:08:56.845Z,12.30
2022-10-13T03:11:24.711Z,12.30
2022-10-13T03:13:52.657Z,12.30
2022-10-13T03:16:20.634Z,12.30
2022-10-13T03:18:48.508Z,12.40
2022-10-13T03:21:17.051Z,12.40
2022-10-13T03:23:44.993Z,12.40
2022-10-13T03:26:15.541Z,12.40
2022-10-13T03:28:43.505Z,12.40
2022-10-13T03:31:13.709Z,12.40
2022-10-13T03:33:42.010Z,12.40
2022-10-13T03:36:09.965Z,12.40
2022-10-13T03:38:38.093Z,12.40
2022-10-13T03:41:07.282Z,12.40
2022-10-13T03:43:36.799Z,12.40
2022-10-13T03:46:06.997Z,12.40
2022-10-13T03:48:36.490Z,12.40
2022-10-13T03:51:06.472Z,12.40
2022-10-13T03:53:35.007Z,12.40
2022-10-13T03:56:03.260Z,12.40
2022-10-13T03:58:31.867Z,12.40
2022-10-13T04:01:05.907Z,12.40
2022-10-13T04:03:34.939Z,12.50
2022-10-13T04:06:03.409Z,12.50
2022-10-13T04:08:31.963Z,12.50
2022-10-13T04:11:00.410Z,12.50
2022-10-13T04:13:28.311Z,12.50
2022-10-13T04:15:56.185Z,12.50
2022-10-13T04:18:25.409Z,12.50
2022-10-13T04:20:53.294Z,12.50
2022-10-13T04:23:21.255Z,12.50
2022-10-13T04:25:49.150Z,12.60
2022-10-13T04:28:17.118Z,12.60
2022-10-13T04:30:49.309Z,12.60
2022-10-13T04:33:17.546Z,12.60
2022-10-13T04:35:46.765Z,12.60
2022-10-13T04:38:14.645Z,12.60
2022-10-13T04:40:42.499Z,12.60
2022-10-13T04:43:10.390Z,12.60
2022-10-13T04:45:38.334Z,12.60
2022-10-13T04:48:06.535Z,12.70
2022-10-13T04:50:34.433Z,12.60
2022-10-13T04:53:03.666Z,12.60
2022-10-13T04:55:31.635Z,12.60
2022-10-13T04:57:59.528Z,12.60
2022-10-13T05:00:27.530Z,12.60
2022-10-13T05:02:55.491Z,12.60
2022-10-13T05:05:23.432Z,12.80
2022-10-13T05:07:51.295Z,12.70
2022-10-13T05:10:20.773Z,12.70
2022-10-13T05:12:48.631Z,13.70
2022-10-13T05:15:16.642Z,12.70
2022-10-13T05:17:44.839Z,12.70
2022-10-13T05:20:13.295Z,12.80
2022-10-13T05:22:41.161Z,12.80
2022-10-13T05:25:09.466Z,12.80
2022-10-13T05:27:38.739Z,12.80
2022-10-13T05:30:07.489Z,12.80
2022-10-13T05:32:36.591Z,12.80
2022-10-13T05:35:04.864Z,12.80
2022-10-13T05:37:32.766Z,12.80
2022-10-13T05:40:00.609Z,12.90
2022-10-13T05:42:30.750Z,12.80
2022-10-13T05:45:00.377Z,12.80
2022-10-13T05:47:28.354Z,12.80
2022-10-13T05:49:56.473Z,12.80
2022-10-13T05:52:26.141Z,12.80
2022-10-13T05:54:57.417Z,12.80
2022-10-13T05:57:28.506Z,12.80
2022-10-13T06:00:01.084Z,12.80
2022-10-13T06:02:34.944Z,12.80
2022-10-13T06:05:04.095Z,12.80
2022-10-13T06:07:32.310Z,12.80
2022-10-13T06:10:00.669Z,12.80
2022-10-13T06:12:28.529Z,12.80
2022-10-13T06:14:56.419Z,12.80
2022-10-13T06:17:25.704Z,12.80
2022-10-13T06:19:53.537Z,12.80
2022-10-13T06:22:22.291Z,12.80
2022-10-13T06:24:50.380Z,12.80
2022-10-13T06:27:18.265Z,12.80
2022-10-13T06:29:46.334Z,12.90
2022-10-13T06:32:14.172Z,12.90
2022-10-13T06:34:43.354Z,12.90
2022-10-13T06:37:11.250Z,12.90
2022-10-13T06:39:39.109Z,12.90
2022-10-13T06:42:07.021Z,12.90
2022-10-13T06:44:35.255Z,13.00
2022-10-13T06:47:03.617Z,13.00
2022-10-13T06:49:31.478Z,13.00
2022-10-13T06:52:00.817Z,13.00
2022-10-13T06:54:28.717Z,13.00
2022-10-13T06:56:56.565Z,13.00
2022-10-13T06:59:26.396Z,12.90
2022-10-13T07:01:54.511Z,13.00
2022-10-13T07:04:22.975Z,13.00
2022-10-13T07:06:52.655Z,13.10
2022-10-13T07:09:21.993Z,13.10
2022-10-13T07:11:50.213Z,13.10
2022-10-13T07:14:18.069Z,13.10
2022-10-13T07:16:45.921Z,13.10
2022-10-13T07:19:13.851Z,13.10
2022-10-13T07:21:41.917Z,13.10
2022-10-13T07:24:12.746Z,13.10
2022-10-13T07:26:41.986Z,13.10
2022-10-13T07:29:10.274Z,13.10
2022-10-13T07:31:38.200Z,13.20
2022-10-13T07:34:06.712Z,13.20
2022-10-13T07:36:35.491Z,13.20
2022-10-13T07:39:03.999Z,13.20
2022-10-13T07:41:31.861Z,13.20
2022-10-13T07:44:01.066Z,13.30
2022-10-13T07:46:29.835Z,13.30
2022-10-13T07:48:57.901Z,13.30
2022-10-13T07:51:25.814Z,13.40
2022-10-13T07:53:53.724Z,13.40
2022-10-13T07:56:21.671Z,13.40
2022-10-13T07:58:49.566Z,13.40
2022-10-13T08:01:19.359Z,13.40
2022-10-13T08:03:50.250Z,13.30
2022-10-13T08:06:18.790Z,13.40
2022-10-13T08:08:46.929Z,13.40
2022-10-13T08:11:17.234Z,13.50
2022-10-13T08:13:48.834Z,13.50
2022-10-13T08:16:18.393Z,13.50
2022-10-13T08:18:47.006Z,13.60
2022-10-13T08:24:06.446Z,13.60
2022-10-13T08:26:34.454Z,13.60
2022-10-13T08:29:20.879Z,13.60
2022-10-13T08:31:51.757Z,13.70
2022-10-13T08:34:20.313Z,13.60
2022-10-13T08:36:48.820Z,13.70
2022-10-13T08:39:16.743Z,13.70
2022-10-13T08:41:45.307Z,13.70
2022-10-13T08:47:19.218Z,13.80
2022-10-13T08:49:47.533Z,13.80
2022-10-13T08:52:21.054Z,13.90
2022-10-13T08:54:49.753Z,13.90
2022-10-13T08:57:18.757Z,13.90
2022-10-13T08:59:47.682Z,13.90
2022-10-13T09:02:24.824Z,13.90
2022-10-13T09:04:54.390Z,13.90
2022-10-13T09:07:27.515Z,13.90
2022-10-13T09:09:56.303Z,14.00
2022-10-13T09:12:25.809Z,14.00
2022-10-13T09:15:05.717Z,14.00
2022-10-13T09:17:35.670Z,14.10
2022-10-13T09:20:06.158Z,14.20
2022-10-13T09:22:36.604Z,14.10
2022-10-13T09:25:21.252Z,14.10
2022-10-13T09:27:51.484Z,14.20
2022-10-13T09:30:30.012Z,14.10
2022-10-13T09:33:16.288Z,14.20
2022-10-13T09:35:46.636Z,14.30
2022-10-13T09:38:17.068Z,14.40
2022-10-13T09:40:57.091Z,14.40
2022-10-13T09:43:30.664Z,14.40
2022-10-13T09:45:59.565Z,14.50
2022-10-13T09:48:31.183Z,14.50
2022-10-13T09:50:59.657Z,14.60
2022-10-13T09:53:32.189Z,14.90
2022-10-13T09:56:18.281Z,14.60
2022-10-13T09:58:51.690Z,14.70
2022-10-13T10:01:26.586Z,14.70
2022-10-13T10:03:58.115Z,14.80
2022-10-13T10:06:27.877Z,14.80
2022-10-13T10:09:04.347Z,14.70
2022-10-13T10:11:36.202Z,14.70
2022-10-13T10:14:16.481Z,14.80
2022-10-13T10:16:47.881Z,14.90
2022-10-13T10:19:22.308Z,14.90
2022-10-13T10:21:56.944Z,14.80
2022-10-13T10:24:29.622Z,14.80
2022-10-13T10:27:01.096Z,14.90
2022-10-13T10:29:42.066Z,14.90
2022-10-13T10:32:27.506Z,14.90
2022-10-13T10:35:00.801Z,14.90
2022-10-13T10:37:51.233Z,14.90
2022-10-13T10:40:32.254Z,14.90
2022-10-13T10:43:27.176Z,14.90
2022-10-13T10:45:57.913Z,14.90
2022-10-13T10:48:29.390Z,14.90
2022-10-13T10:50:59.002Z,14.90
2022-10-13T10:53:35.134Z,14.90
2022-10-13T10:56:10.290Z,14.70
2022-10-13T10:58:44.930Z,14.80
2022-10-13T11:01:28.369Z,14.80
2022-10-13T11:04:02.178Z,14.80
2022-10-13T11:06:38.652Z,14.80
2022-10-13T11:09:07.492Z,14.80
2022-10-13T11:11:40.427Z,14.80
2022-10-13T11:14:31.920Z,14.80
2022-10-13T11:17:28.737Z,14.90
2022-10-13T11:19:56.951Z,14.90
2022-10-13T11:22:28.331Z,14.90
2022-10-13T11:25:24.955Z,14.90
2022-10-13T11:27:54.227Z,15.00
2022-10-13T11:30:44.509Z,14.90
2022-10-13T11:33:53.064Z,14.90
2022-10-13T11:36:51.111Z,14.90
2022-10-13T11:39:53.109Z,14.90
2022-10-13T11:42:50.432Z,15.00
2022-10-13T11:45:42.937Z,14.90
2022-10-13T11:48:49.790Z,15.00
2022-10-13T11:51:27.236Z,15.00
2022-10-13T11:54:00.648Z,15.00
2022-10-13T11:56:39.400Z,15.00
2022-10-13T11:59:24.336Z,14.90
2022-10-13T12:01:58.751Z,14.90
2022-10-13T12:04:29.164Z,15.00
2022-10-13T12:07:01.439Z,14.80
2022-10-13T12:09:31.435Z,14.80
2022-10-13T12:12:02.439Z,14.80
2022-10-13T12:17:24.712Z,14.70
2022-10-13T12:19:53.090Z,14.60
2022-10-13T12:22:21.054Z,14.70
2022-10-13T12:24:59.641Z,14.70
2022-10-13T12:27:28.534Z,14.60
2022-10-13T12:29:56.675Z,14.60
2022-10-13T12:32:27.847Z,14.70
2022-10-13T12:34:55.941Z,14.70
2022-10-13T12:37:29.620Z,14.70
2022-10-13T12:39:59.134Z,14.60
2022-10-13T12:42:31.567Z,14.70
2022-10-13T12:45:01.382Z,14.60
2022-10-13T12:47:46.802Z,14.50
2022-10-13T12:50:38.191Z,14.50
2022-10-13T12:53:16.430Z,14.50
2022-10-13T12:55:55.217Z,14.60
2022-10-13T12:58:27.018Z,14.60
2022-10-13T13:01:22.339Z,14.60
2022-10-13T13:03:58.970Z,14.60
2022-10-13T13:06:32.017Z,14.60
2022-10-13T13:09:28.431Z,14.70
2022-10-13T13:12:24.507Z,14.70
2022-10-13T13:14:55.208Z,14.70
2022-10-13T13:17:53.335Z,14.70
2022-10-13T13:20:26.889Z,15.20
2022-10-13T13:22:55.180Z,14.60
2022-10-13T13:25:23.441Z,14.60
2022-10-13T13:27:51.854Z,14.30
2022-10-13T13:30:21.973Z,14.30
2022-10-13T13:32:49.980Z,14.10
2022-10-13T13:35:18.457Z,14.10
2022-10-13T13:37:51.007Z,14.10
2022-10-13T13:40:20.997Z,14.10
2022-10-13T13:42:48.997Z,14.00
2022-10-13T13:45:18.410Z,13.90
2022-10-13T13:47:46.793Z,13.90
2022-10-13T13:50:18.662Z,14.00
2022-10-13T13:52:48.317Z,14.00
2022-10-13T13:55:16.427Z,13.90
2022-10-13T13:57:45.264Z,13.90
2022-10-13T14:00:15.381Z,13.80
2022-10-13T14:02:44.005Z,13.80
2022-10-13T14:05:12.437Z,13.80
2022-10-13T14:07:40.665Z,13.80
2022-10-13T14:10:11.589Z,13.80
2022-10-13T14:12:40.023Z,13.80
2022-10-13T14:15:09.101Z,13.80
2022-10-13T14:17:37.022Z,13.70
2022-10-13T14:20:05.584Z,13.60
2022-10-13T14:22:33.495Z,13.70
2022-10-13T14:25:01.364Z,13.70
2022-10-13T14:27:31.167Z,13.70
2022-10-13T14:29:59.031Z,13.80
2022-10-13T14:32:26.943Z,13.80
2022-10-13T14:34:54.846Z,13.90
2022-10-13T14:37:23.884Z,14.00
2022-10-13T14:39:52.941Z,14.10
2022-10-13T14:42:20.814Z,14.20
2022-10-13T14:44:50.019Z,14.10
2022-10-13T14:47:18.186Z,14.10
2022-10-13T14:49:46.165Z,14.10
2022-10-13T14:52:14.071Z,14.10
2022-10-13T14:54:44.843Z,14.20
2022-10-13T14:57:15.783Z,14.20
2022-10-13T14:59:44.401Z,14.20
2022-10-13T15:02:14.013Z,14.20
2022-10-13T15:04:42.134Z,14.30
2022-10-13T15:07:09.989Z,14.30
2022-10-13T15:09:52.375Z,14.40
2022-10-13T15:12:21.811Z,14.30
2022-10-13T15:14:49.906Z,14.30
2022-10-13T15:17:19.146Z,14.40
2022-10-13T15:19:47.048Z,14.40
2022-10-13T15:22:15.131Z,14.50
2022-10-13T15:24:43.390Z,14.30
2022-10-13T15:27:11.298Z,14.20
2022-10-13T15:29:39.183Z,14.20
2022-10-13T15:32:11.275Z,14.20
2022-10-13T15:34:41.091Z,14.20
2022-10-13T15:37:09.130Z,14.10
2022-10-13T15:39:37.235Z,14.10
2022-10-13T15:42:06.250Z,14.10
2022-10-13T15:44:57.453Z,14.00
2022-10-13T15:47:22.515Z,14.00
2022-10-13T15:49:51.781Z,13.90
2022-10-13T15:52:19.991Z,13.80
2022-10-13T15:54:51.261Z,13.80
2022-10-13T15:57:19.211Z,13.70
2022-10-13T15:59:47.115Z,13.70
2022-10-13T16:02:15.002Z,13.70
2022-10-13T16:04:42.849Z,13.60
2022-10-13T16:07:12.071Z,13.60
2022-10-13T16:09:40.254Z,13.50
2022-10-13T16:12:08.385Z,13.50
2022-10-13T16:14:36.322Z,13.40
2022-10-13T16:17:04.450Z,13.40
2022-10-13T16:19:32.338Z,13.30
2022-10-13T16:22:00.239Z,13.30
2022-10-13T16:24:29.853Z,13.30
2022-10-13T16:26:57.723Z,13.20
2022-10-13T16:29:25.623Z,13.20
2022-10-13T16:31:53.539Z,13.20
2022-10-13T16:34:22.809Z,13.10
2022-10-13T16:36:50.739Z,13.00
2022-10-13T16:39:18.693Z,13.00
2022-10-13T16:41:47.954Z,12.90
2022-10-13T16:44:16.821Z,12.90
2022-10-13T16:46:45.002Z,12.80
2022-10-13T16:49:13.459Z,12.80
2022-10-13T16:51:41.366Z,12.80
2022-10-13T16:54:10.646Z,12.70
2022-10-13T16:56:38.579Z,12.70
2022-10-13T16:59:08.668Z,12.70
2022-10-13T17:01:37.582Z,12.60
2022-10-13T17:04:08.600Z,12.60
2022-10-13T17:06:38.810Z,12.50
2022-10-13T17:09:09.572Z,12.50
2022-10-13T17:11:42.883Z,12.40
2022-10-13T17:14:17.235Z,12.40
2022-10-13T17:16:45.683Z,12.30
2022-10-13T17:19:14.232Z,12.30
2022-10-13T17:21:42.469Z,12.30
2022-10-13T17:24:10.972Z,12.20
2022-10-13T17:26:38.879Z,12.20
2022-10-13T17:29:06.901Z,12.10
2022-10-13T17:31:36.336Z,12.10
2022-10-13T17:34:06.184Z,12.00
2022-10-13T17:36:34.561Z,12.00
2022-10-13T17:39:05.906Z,11.90
2022-10-13T17:41:33.963Z,11.80
2022-10-13T17:44:01.903Z,11.80
2022-10-13T17:46:36.687Z,11.80
2022-10-13T17:49:08.544Z,11.70
2022-10-13T17:51:36.548Z,11.70
2022-10-13T17:54:04.870Z,11.70
2022-10-13T17:56:32.898Z,11.70
2022-10-13T17:59:01.846Z,11.60
2022-10-13T18:01:31.586Z,11.50
2022-10-13T18:04:01.737Z,11.50
2022-10-13T18:06:37.955Z,11.50
2022-10-13T18:09:07.542Z,11.40
2022-10-13T18:11:36.116Z,11.40
2022-10-13T18:14:04.151Z,11.30
2022-10-13T18:16:32.535Z,11.30
2022-10-13T18:19:00.622Z,11.30
2022-10-13T18:21:31.850Z,11.20
2022-10-13T18:24:03.456Z,11.20
2022-10-13T18:26:34.989Z,11.20
2022-10-13T18:29:03.769Z,11.10
2022-10-13T18:31:34.181Z,11.10
2022-10-13T18:34:04.987Z,11.10
2022-10-13T18:36:34.657Z,11.00
2022-10-13T18:39:07.388Z,11.00
2022-10-13T18:41:36.687Z,10.90
2022-10-13T18:44:05.150Z,10.90
2022-10-13T18:46:33.642Z,10.90
2022-10-13T18:49:02.739Z,10.80
2022-10-13T18:51:35.984Z,10.80
2022-10-13T18:54:08.803Z,10.90
2022-10-13T18:56:37.613Z,10.80
2022-10-13T18:59:08.124Z,10.70
2022-10-13T19:01:37.905Z,10.70
2022-10-13T19:04:07.499Z,10.70
2022-10-13T19:06:36.002Z,10.70
2022-10-13T19:09:07.255Z,10.60
2022-10-13T19:11:36.511Z,10.60
2022-10-13T19:14:05.582Z,10.60
2022-10-13T19:16:37.198Z,10.90
2022-10-13T19:19:05.331Z,10.50
2022-10-13T19:21:33.610Z,10.50
2022-10-13T19:24:02.543Z,10.90
2022-10-13T19:26:33.771Z,10.40
2022-10-13T19:29:03.694Z,10.40
2022-10-13T19:31:33.399Z,10.40
2022-10-13T19:34:02.174Z,10.30
2022-10-13T19:36:33.278Z,10.30
2022-10-13T19:39:05.965Z,10.30
2022-10-13T19:41:36.243Z,10.30
2022-10-13T19:44:05.488Z,11.10
2022-10-13T19:46:34.315Z,10.20
2022-10-13T19:49:02.264Z,10.20
2022-10-13T19:51:30.102Z,10.10
2022-10-13T19:53:58.008Z,10.10
2022-10-13T19:56:28.226Z,11.10
2022-10-13T19:58:57.425Z,10.10
2022-10-13T20:01:25.480Z,10.10
2022-10-13T20:03:53.676Z,10.00
2022-10-13T20:06:24.771Z,10.00
2022-10-13T20:08:52.633Z,10.00
2022-10-13T20:11:24.109Z,10.00
2022-10-13T20:13:53.085Z,9.90
2022-10-13T20:16:25.682Z,9.90
2022-10-13T20:18:55.133Z,9.90
2022-10-13T20:21:24.402Z,9.90
2022-10-13T20:23:52.750Z,9.80
2022-10-13T20:26:21.739Z,9.80
2022-10-13T20:28:50.778Z,9.80
2022-10-13T20:31:21.487Z,9.80
2022-10-13T20:33:55.090Z,9.80
2022-10-13T20:36:23.138Z,9.80
2022-10-13T20:38:51.427Z,9.70
2022-10-13T20:41:21.238Z,9.70
2022-10-13T20:43:50.267Z,9.70
2022-10-13T20:46:19.902Z,9.70
2022-10-13T20:51:37.441Z,9.80
2022-10-13T20:54:06.212Z,9.80
2022-10-13T20:56:34.758Z,9.80
2022-10-13T20:59:04.190Z,9.80
2022-10-13T21:01:32.383Z,10.70
2022-10-13T21:04:00.280Z,9.90
2022-10-13T21:06:28.410Z,9.90
2022-10-13T21:08:57.871Z,9.90
2022-10-13T21:11:26.412Z,10.00
2022-10-13T21:13:54.679Z,9.90
2022-10-13T21:16:24.710Z,10.00
2022-10-13T21:18:53.239Z,9.90
2022-10-13T21:21:22.916Z,9.90
2022-10-13T21:23:51.293Z,10.00
2022-10-13T21:26:22.367Z,10.00
2022-10-13T21:28:51.628Z,10.10
2022-10-13T21:31:21.449Z,10.00
2022-10-13T21:33:49.967Z,10.00
2022-10-13T21:36:19.971Z,10.00
2022-10-13T21:38:48.831Z,10.00
2022-10-13T21:41:16.859Z,10.00
2022-10-13T21:43:46.133Z,10.00
2022-10-13T21:46:15.762Z,9.90
2022-10-13T21:48:44.229Z,10.00
2022-10-13T21:51:14.202Z,10.00
2022-10-13T21:53:42.842Z,10.00
2022-10-13T21:56:12.429Z,10.30
2022-10-13T21:58:40.729Z,10.00
2022-10-13T22:01:10.252Z,10.00
2022-10-13T22:03:38.221Z,10.00
2022-10-13T22:06:07.659Z,10.10
2022-10-13T22:08:38.999Z,10.10
2022-10-13T22:11:08.618Z,10.10
2022-10-13T22:13:37.229Z,10.20
2022-10-13T22:16:05.986Z,10.20
2022-10-13T22:18:35.387Z,10.20
2022-10-13T22:21:04.045Z,10.20
2022-10-13T22:23:31.906Z,10.20
2022-10-13T22:26:00.312Z,10.20
2022-10-13T22:28:30.323Z,10.20
2022-10-13T22:31:04.655Z,10.20
2022-10-13T22:33:32.791Z,10.20
2022-10-13T22:36:02.346Z,10.20
2022-10-13T22:38:30.187Z,10.20
2022-10-13T22:41:02.808Z,10.30
2022-10-13T22:43:30.870Z,10.30
2022-10-13T22:45:58.803Z,10.30
2022-10-13T22:48:26.714Z,10.20
2022-10-13T22:50:54.648Z,10.20
2022-10-13T22:53:23.899Z,10.20
2022-10-13T22:55:51.779Z,10.30
2022-10-13T22:58:19.643Z,10.20
2022-10-13T23:00:47.562Z,10.20
2022-10-13T23:03:15.831Z,10.20
2022-10-13T23:05:43.907Z,10.20
2022-10-13T23:08:11.824Z,10.10
2022-10-13T23:10:41.107Z,10.10
2022-10-13T23:13:08.983Z,10.10
2022-10-13T23:15:39.034Z,10.10
2022-10-13T23:18:07.053Z,10.10
2022-10-13T23:20:34.927Z,10.20
2022-10-13T23:23:02.822Z,10.10
2022-10-13T23:25:30.711Z,10.20
2022-10-13T23:28:00.680Z,10.20
2022-10-13T23:30:28.682Z,10.20
2022-10-13T23:32:56.870Z,10.20
2022-10-13T23:35:24.746Z,10.20
2022-10-13T23:37:52.984Z,10.30
2022-10-13T23:40:21.366Z,10.30
2022-10-13T23:42:49.247Z,10.30
2022-10-13T23:45:18.623Z,10.40
2022-10-13T23:47:46.526Z,10.40
2022-10-13T23:50:14.379Z,10.40
2022-10-13T23:52:42.246Z,10.40
2022-10-13T23:55:10.523Z,10.40
2022-10-13T23:57:38.385Z,10.50
